Latest Coastal Weather Observations for Frankston

IDV60701

Issued at 4:51 pm EST Thursday 30 June 2016 (issued every 10 minutes, with the page automatically refreshed every 10 minutes)

About coastal observations | Map of coastal stations | Coastal observations for VIC | Marine services | Other Formats
Station Details ID: 086371 Name: FRANKSTON AWS Lat: -38.15 Lon: 145.12 Height: 6.0 m
Data from the previous 72 hours. | See also: Recent months at Frankston
Date/Time
EST
Temp
°C
Wind Pressure Rain since
9am
mm
Weather Cloud Vis
km
Sea
Height
m
Swell
Dir  Spd
kts
Gust
kts
hPa Trend Height
m
Period
s
Dir
30/04:47pm 9.8 NNW 20 26 - - - - - - - - - -
30/04:30pm 10.3 N 20 26 - - - - - - - - - -
30/04:00pm 10.9 N 21 29 - - - - - - - - - -
30/03:30pm 10.9 N 22 27 - - - - - - - - - -
30/03:00pm 11.1 N 22 28 - - - - - - - - - -
30/02:30pm 11.0 N 21 28 - - - - - - - - - -
30/02:03pm 11.2 N 24 35 - - - - - - - - - -
30/02:00pm 11.1 N 25 35 - - - - - - - - - -
30/01:30pm 11.1 N 27 36 - - - - - - - - - -
30/01:26pm 11.2 N 25 36 - - - - - - - - - -
30/01:00pm 11.2 N 27 34 - - - - - - - - - -
30/12:32pm 11.4 N 27 37 - - - - - - - - - -
30/12:30pm 11.3 N 26 36 - - - - - - - - - -
30/12:00pm 11.5 N 25 31 - - - - - - - - - -
30/11:34am 11.3 N 25 38 - - - - - - - - - -
30/11:30am 11.3 N 24 33 - - - - - - - - - -
30/11:19am 11.2 N 26 36 - - - - - - - - - -
30/11:00am 11.4 N 23 30 - - - - - - - - - -
30/10:30am 11.4 N 23 32 - - - - - - - - - -
30/10:14am 11.4 N 23 34 - - - - - - - - - -
30/10:00am 11.3 N 23 30 - - - - - - - - - -
30/09:30am 11.3 N 23 31 - - - - - - - - - -
30/09:00am 11.3 N 24 32 - - - - - - - - - -
30/08:30am 11.3 N 23 30 - - - - - - - - - -
30/08:06am 11.2 N 23 33 - - - - - - - - - -
30/08:00am 11.4 N 25 33 - - - - - - - - - -
30/07:30am 11.7 N 24 31 - - - - - - - - - -
30/07:00am 11.6 N 24 34 - - - - - - - - - -
30/06:42am 11.7 N 19 29 - - - - - - - - - -
30/06:30am 11.6 N 19 24 - - - - - - - - - -
30/06:00am 11.6 N 21 27 - - - - - - - - - -
30/05:30am 11.7 N 20 26 - - - - - - - - - -
30/05:00am 11.6 N 18 25 - - - - - - - - - -
30/04:30am 11.5 N 19 25 - - - - - - - - - -
30/04:00am 11.3 N 20 27 - - - - - - - - - -
30/03:30am 11.0 N 21 28 - - - - - - - - - -
30/03:00am 11.2 N 21 27 - - - - - - - - - -
30/02:30am 11.2 N 19 24 - - - - - - - - - -
30/02:00am 11.5 N 20 26 - - - - - - - - - -
30/01:30am 11.6 N 16 23 - - - - - - - - - -
30/01:00am 11.6 N 16 20 - - - - - - - - - -
30/12:30am 11.7 N 17 20 - - - - - - - - - -
30/12:00am 11.8 N 16 23 - - - - - - - - - -
 
Date/Time
EST
Temp
°C
Wind Pressure Rain since
9am
mm
Weather Cloud Vis
km
Sea
Height
m
Swell
Dir  Spd
kts
Gust
kts
hPa Trend Height
m
Period
s
Dir
29/11:30pm 12.0 NNW 19 26 - - - - - - - - - -
29/11:00pm 12.1 NNW 18 23 - - - - - - - - - -
29/10:54pm 12.2 NNW 17 21 - - - - - - - - - -
29/10:30pm 12.0 N 7 10 - - - - - - - - - -
29/10:00pm 11.8 N 7 9 - - - - - - - - - -
29/09:30pm 11.6 N 7 10 - - - - - - - - - -
29/09:00pm 11.4 NNE 8 11 - - - - - - - - - -
29/08:30pm 11.3 NE 7 10 - - - - - - - - - -
29/08:00pm 11.4 NNE 7 12 - - - - - - - - - -
29/07:30pm 11.5 NNE 6 10 - - - - - - - - - -
29/07:00pm 11.9 NNE 7 10 - - - - - - - - - -
29/06:30pm 12.0 NNE 6 8 - - - - - - - - - -
29/06:00pm 12.7 N 11 14 - - - - - - - - - -
29/05:30pm 12.8 N 14 18 - - - - - - - - - -
29/05:00pm 13.5 N 18 23 - - - - - - - - - -
29/04:30pm 13.2 N 14 18 - - - - - - - - - -
29/04:00pm 13.3 N 12 16 - - - - - - - - - -
29/03:30pm 13.2 N 12 14 - - - - - - - - - -
29/03:00pm 13.4 N 11 13 - - - - - - - - - -
29/02:30pm 13.5 N 10 14 - - - - - - - - - -
29/02:00pm 13.2 N 9 11 - - - - - - - - - -
29/01:30pm 13.1 N 8 10 - - - - - - - - - -
29/01:00pm 12.9 N 7 9 - - - - - - - - - -
29/12:30pm 12.6 N 7 8 - - - - - - - - - -
29/12:00pm 12.5 N 8 9 - - - - - - - - - -
29/11:30am 12.3 N 8 9 - - - - - - - - - -
29/11:00am 11.9 NNE 6 8 - - - - - - - - - -
29/10:30am 11.6 NNE 5 6 - - - - - - - - - -
29/10:00am 11.1 NNE 5 6 - - - - - - - - - -
29/09:30am 10.7 NNE 5 7 - - - - - - - - - -
29/09:00am 10.3 ENE 4 6 - - - - - - - - - -
29/08:30am 9.5 E 5 7 - - - - - - - - - -
29/08:00am 10.6 N 9 12 - - - - - - - - - -
29/07:30am 10.6 N 10 12 - - - - - - - - - -
29/07:00am 10.7 N 9 11 - - - - - - - - - -
29/06:30am 10.8 N 9 12 - - - - - - - - - -
29/06:00am 10.8 N 9 12 - - - - - - - - - -
29/05:30am 10.9 N 10 13 - - - - - - - - - -
29/05:00am 10.9 N 10 14 - - - - - - - - - -
29/04:30am 10.9 N 10 13 - - - - - - - - - -
29/04:00am 10.7 N 10 12 - - - - - - - - - -
29/03:30am 10.9 N 10 12 - - - - - - - - - -
29/03:00am 11.0 N 11 13 - - - - - - - - - -
29/02:30am 11.2 N 11 13 - - - - - - - - - -
29/02:00am 11.4 N 12 15 - - - - - - - - - -
29/01:30am 11.5 N 10 13 - - - - - - - - - -
29/01:00am 11.3 N 9 11 - - - - - - - - - -
29/12:30am 11.2 N 10 12 - - - - - - - - - -
29/12:00am 11.3 N 11 13 - - - - - - - - - -
 
Date/Time
EST
Temp
°C
Wind Pressure Rain since
9am
mm
Weather Cloud Vis
km
Sea
Height
m
Swell
Dir  Spd
kts
Gust
kts
hPa Trend Height
m
Period
s
Dir
28/11:30pm 11.3 N 10 13 - - - - - - - - - -
28/11:00pm 11.2 NNE 8 10 - - - - - - - - - -
28/10:30pm 11.3 N 10 13 - - - - - - - - - -
28/10:00pm 11.3 N 10 12 - - - - - - - - - -
28/09:30pm 11.3 N 9 11 - - - - - - - - - -
28/09:00pm 11.4 N 8 10 - - - - - - - - - -
28/08:30pm 11.5 N 9 11 - - - - - - - - - -
28/08:00pm 11.5 N 8 10 - - - - - - - - - -
28/07:30pm 11.5 N 10 12 - - - - - - - - - -
28/07:00pm 11.9 NNE 10 12 - - - - - - - - - -
28/06:30pm 12.1 N 8 10 - - - - - - - - - -
28/06:00pm 12.6 N 7 9 - - - - - - - - - -
28/05:30pm 12.3 NNE 4 6 - - - - - - - - - -
28/05:00pm 12.9 NNW 5 6 - - - - - - - - - -
28/04:30pm 12.7 NW 4 5 - - - - - - - - - -
28/04:00pm 12.9 NW 4 5 - - - - - - - - - -
28/03:30pm 13.6 NW 6 7 - - - - - - - - - -
28/03:00pm 12.6 NNW 3 5 - - - - - - - - - -
28/02:30pm 12.8 NNW 5 7 - - - - - - - - - -
28/02:00pm 13.1 NW 7 9 - - - - - - - - - -
28/01:30pm 12.7 NNW 8 10 - - - - - - - - - -
28/01:00pm 12.5 NNW 8 10 - - - - - - - - - -
28/12:30pm 12.4 NNW 9 11 - - - - - - - - - -
28/12:00pm 12.3 NNW 9 11 - - - - - - - - - -
28/11:30am 12.2 N 9 11 - - - - - - - - - -
28/11:00am 11.4 N 8 10 - - - - - - - - - -
28/10:30am 11.1 N 9 10 - - - - - - - - - -
28/10:00am 10.5 N 8 9 - - - - - - - - - -
28/09:30am 10.2 N 9 11 - - - - - - - - - -
28/09:00am 10.3 N 8 10 - - - - - - - - - -
28/08:30am 9.7 NNE 7 9 - - - - - - - - - -
28/08:00am 9.1 NNE 5 7 - - - - - - - - - -
28/07:30am 9.0 NNE 5 7 - - - - - - - - - -
28/07:00am 8.9 NNE 5 8 - - - - - - - - - -
28/06:30am 8.6 NE 4 6 - - - - - - - - - -
28/06:00am 8.4 NE 3 7 - - - - - - - - - -
28/05:30am 8.3 NE 5 6 - - - - - - - - - -
28/05:00am 7.3 ENE 3 5 - - - - - - - - - -
28/04:30am 7.5 NE 4 6 - - - - - - - - - -
28/04:00am 7.6 ENE 4 7 - - - - - - - - - -
28/03:30am 7.2 E 5 7 - - - - - - - - - -
28/03:00am 7.2 ENE 4 6 - - - - - - - - - -
28/02:30am 7.2 ENE 4 5 - - - - - - - - - -
28/02:00am 6.8 E 3 4 - - - - - - - - - -
28/01:30am 7.2 ENE 3 6 - - - - - - - - - -
28/01:00am 7.3 ENE 3 4 - - - - - - - - - -
28/12:30am 7.7 E 2 3 - - - - - - - - - -
28/12:00am 7.9 E 5 7 - - - - - - - - - -
 
Date/Time
EST
Temp
°C
Wind Pressure Rain since
9am
mm
Weather Cloud Vis
km
Sea
Height
m
Swell
Dir  Spd
kts
Gust
kts
hPa Trend Height
m
Period
s
Dir
27/11:30pm 7.9 E 4 5 - - - - - - - - - -
27/11:00pm 7.9 E 3 5 - - - - - - - - - -
27/10:30pm 10.3 N 6 11 - - - - - - - - - -
27/10:00pm 8.2 CALM 0 0 - - - - - - - - - -
27/09:30pm 8.3 E 2 3 - - - - - - - - - -
27/09:00pm 8.3 ESE 3 5 - - - - - - - - - -
27/08:30pm 9.0 ENE 5 7 - - - - - - - - - -
27/08:00pm 8.8 E 4 6 - - - - - - - - - -
27/07:30pm 8.7 E 4 7 - - - - - - - - - -
27/07:00pm 8.8 E 3 4 - - - - - - - - - -
27/06:30pm 10.4 N 7 9 - - - - - - - - - -
27/06:00pm 11.1 NNW 7 9 - - - - - - - - - -
27/05:30pm 11.0 NNW 7 9 - - - - - - - - - -
27/05:00pm 11.0 NNW 8 9 - - - - - - - - - -

Other Formats:

Comma delimited format used in spreadsheet applications
http://www.bom.gov.au/fwo/IDV60701/IDV60701.94871.axf

JavaScript Object Notation format (JSON) in row-major order
http://www.bom.gov.au/fwo/IDV60701/IDV60701.94871.json